sensor_id;sensor_type;location;lat;lon;timestamp;pressure;altitude;pressure_sealevel;temperature;humidity
9421;BME280;4749;51.398;5.466;2023-09-07T00:02:13;101721.38;;;18.99;100.00
9421;BME280;4749;51.398;5.466;2023-09-07T00:04:40;101712.56;;;18.95;100.00
9421;BME280;4749;51.398;5.466;2023-09-07T00:07:08;101719.75;;;18.90;100.00
9421;BME280;4749;51.398;5.466;2023-09-07T00:09:35;101710.91;;;18.88;100.00
9421;BME280;4749;51.398;5.466;2023-09-07T00:12:02;101710.09;;;18.84;100.00
9421;BME280;4749;51.398;5.466;2023-09-07T00:14:29;101719.91;;;18.81;100.00
9421;BME280;4749;51.398;5.466;2023-09-07T00:16:57;101722.63;;;18.79;100.00
9421;BME280;4749;51.398;5.466;2023-09-07T00:19:24;101714.69;;;18.76;100.00
9421;BME280;4749;51.398;5.466;2023-09-07T00:21:52;101712.97;;;18.72;100.00
9421;BME280;4749;51.398;5.466;2023-09-07T00:24:19;101713.91;;;18.70;100.00
9421;BME280;4749;51.398;5.466;2023-09-07T00:26:46;101714.84;;;18.67;100.00
9421;BME280;4749;51.398;5.466;2023-09-07T00:29:13;101717.53;;;18.63;100.00
9421;BME280;4749;51.398;5.466;2023-09-07T00:31:40;101710.53;;;18.59;100.00
9421;BME280;4749;51.398;5.466;2023-09-07T00:34:08;101710.53;;;18.57;100.00
9421;BME280;4749;51.398;5.466;2023-09-07T00:36:36;101708.81;;;18.54;100.00
9421;BME280;4749;51.398;5.466;2023-09-07T00:39:04;101707.06;;;18.52;100.00
9421;BME280;4749;51.398;5.466;2023-09-07T00:41:31;101703.56;;;18.50;100.00
9421;BME280;4749;51.398;5.466;2023-09-07T00:43:59;101705.34;;;18.48;100.00
9421;BME280;4749;51.398;5.466;2023-09-07T00:46:26;101699.19;;;18.46;100.00
9421;BME280;4749;51.398;5.466;2023-09-07T00:48:54;101700.13;;;18.43;100.00
9421;BME280;4749;51.398;5.466;2023-09-07T00:51:21;101703.69;;;18.41;100.00
9421;BME280;4749;51.398;5.466;2023-09-07T00:53:49;101699.34;;;18.37;100.00
9421;BME280;4749;51.398;5.466;2023-09-07T00:56:17;101703.81;;;18.35;100.00
9421;BME280;4749;51.398;5.466;2023-09-07T00:58:44;101710.03;;;18.32;100.00
9421;BME280;4749;51.398;5.466;2023-09-07T01:01:12;101709.16;;;18.32;100.00
9421;BME280;4749;51.398;5.466;2023-09-07T01:03:39;101711.00;;;18.28;100.00
9421;BME280;4749;51.398;5.466;2023-09-07T01:06:07;101711.03;;;18.26;100.00
9421;BME280;4749;51.398;5.466;2023-09-07T01:08:49;101711.06;;;18.23;100.00
9421;BME280;4749;51.398;5.466;2023-09-07T01:11:19;101707.56;;;18.21;100.00
9421;BME280;4749;51.398;5.466;2023-09-07T01:13:47;101712.06;;;18.18;100.00
9421;BME280;4749;51.398;5.466;2023-09-07T01:16:14;101707.59;;;18.18;100.00
9421;BME280;4749;51.398;5.466;2023-09-07T01:18:42;101707.63;;;18.15;100.00
9421;BME280;4749;51.398;5.466;2023-09-07T01:21:12;101702.34;;;18.14;100.00
9421;BME280;4749;51.398;5.466;2023-09-07T01:23:44;101705.06;;;18.11;100.00
9421;BME280;4749;51.398;5.466;2023-09-07T01:26:11;101703.34;;;18.08;100.00
9421;BME280;4749;51.398;5.466;2023-09-07T01:28:39;101701.56;;;18.06;100.00
9421;BME280;4749;51.398;5.466;2023-09-07T01:31:06;101704.28;;;18.03;100.00
9421;BME280;4749;51.398;5.466;2023-09-07T01:33:33;101694.59;;;18.00;100.00
9421;BME280;4749;51.398;5.466;2023-09-07T01:36:01;101701.69;;;17.98;100.00
9421;BME280;4749;51.398;5.466;2023-09-07T01:38:28;101699.06;;;17.95;100.00
9421;BME280;4749;51.398;5.466;2023-09-07T01:40:57;101697.34;;;17.92;100.00
9421;BME280;4749;51.398;5.466;2023-09-07T01:43:24;101697.38;;;17.91;100.00
9421;BME280;4749;51.398;5.466;2023-09-07T01:45:51;101693.84;;;17.89;100.00
9421;BME280;4749;51.398;5.466;2023-09-07T01:48:18;101683.22;;;17.87;100.00
9421;BME280;4749;51.398;5.466;2023-09-07T01:50:45;101680.63;;;17.84;100.00
9421;BME280;4749;51.398;5.466;2023-09-07T01:53:13;101688.63;;;17.83;100.00
9421;BME280;4749;51.398;5.466;2023-09-07T01:55:40;101683.31;;;17.80;100.00
9421;BME280;4749;51.398;5.466;2023-09-07T01:58:07;101680.69;;;17.78;100.00
9421;BME280;4749;51.398;5.466;2023-09-07T02:00:38;101683.41;;;17.75;100.00
9421;BME280;4749;51.398;5.466;2023-09-07T02:03:06;101679.88;;;17.73;100.00
9421;BME280;4749;51.398;5.466;2023-09-07T02:05:34;101690.53;;;17.71;100.00
9421;BME280;4749;51.398;5.466;2023-09-07T02:08:01;101695.88;;;17.70;100.00
9421;BME280;4749;51.398;5.466;2023-09-07T02:10:28;101691.44;;;17.69;100.00
9421;BME280;4749;51.398;5.466;2023-09-07T02:12:56;101693.22;;;17.67;100.00
9421;BME280;4749;51.398;5.466;2023-09-07T02:15:24;101696.78;;;17.66;100.00
9421;BME280;4749;51.398;5.466;2023-09-07T02:17:52;101695.03;;;17.63;100.00
9421;BME280;4749;51.398;5.466;2023-09-07T02:20:20;101693.31;;;17.61;100.00
9421;BME280;4749;51.398;5.466;2023-09-07T02:22:47;101686.25;;;17.58;100.00
9421;BME280;4749;51.398;5.466;2023-09-07T02:25:14;101687.16;;;17.57;100.00
9421;BME280;4749;51.398;5.466;2023-09-07T02:27:42;101685.41;;;17.55;100.00
9421;BME280;4749;51.398;5.466;2023-09-07T02:30:09;101685.44;;;17.52;100.00
9421;BME280;4749;51.398;5.466;2023-09-07T02:32:37;101685.44;;;17.52;100.00
9421;BME280;4749;51.398;5.466;2023-09-07T02:35:04;101681.94;;;17.50;100.00
9421;BME280;4749;51.398;5.466;2023-09-07T02:37:31;101685.50;;;17.47;100.00
9421;BME280;4749;51.398;5.466;2023-09-07T02:39:59;101683.75;;;17.46;100.00
9421;BME280;4749;51.398;5.466;2023-09-07T02:42:26;101687.28;;;17.45;100.00
9421;BME280;4749;51.398;5.466;2023-09-07T02:44:53;101681.13;;;17.43;100.00
9421;BME280;4749;51.398;5.466;2023-09-07T02:47:20;101683.81;;;17.41;100.00
9421;BME280;4749;51.398;5.466;2023-09-07T02:49:48;101687.38;;;17.39;100.00
9421;BME280;4749;51.398;5.466;2023-09-07T02:52:15;101680.28;;;17.38;100.00
9421;BME280;4749;51.398;5.466;2023-09-07T02:54:42;101688.31;;;17.35;100.00
9421;BME280;4749;51.398;5.466;2023-09-07T02:57:10;101684.81;;;17.33;100.00
9421;BME280;4749;51.398;5.466;2023-09-07T02:59:37;101682.16;;;17.30;100.00
9421;BME280;4749;51.398;5.466;2023-09-07T03:02:04;101683.94;;;17.29;100.00
9421;BME280;4749;51.398;5.466;2023-09-07T03:04:31;101672.47;;;17.27;100.00
9421;BME280;4749;51.398;5.466;2023-09-07T03:07:01;101676.00;;;17.26;100.00
9421;BME280;4749;51.398;5.466;2023-09-07T03:09:29;101681.34;;;17.25;100.00
9421;BME280;4749;51.398;5.466;2023-09-07T03:11:56;101684.00;;;17.25;100.00
9421;BME280;4749;51.398;5.466;2023-09-07T03:14:23;101684.00;;;17.25;100.00
9421;BME280;4749;51.398;5.466;2023-09-07T03:16:51;101685.78;;;17.24;100.00
9421;BME280;4749;51.398;5.466;2023-09-07T03:19:19;101689.31;;;17.23;100.00
9421;BME280;4749;51.398;5.466;2023-09-07T03:21:46;101695.53;;;17.22;100.00
9421;BME280;4749;51.398;5.466;2023-09-07T03:24:13;101688.47;;;17.20;100.00
9421;BME280;4749;51.398;5.466;2023-09-07T03:26:42;101690.28;;;17.17;100.00
9421;BME280;4749;51.398;5.466;2023-09-07T03:29:10;101688.53;;;17.15;100.00
9421;BME280;4749;51.398;5.466;2023-09-07T03:31:37;101684.13;;;17.12;100.00
9421;BME280;4749;51.398;5.466;2023-09-07T03:34:05;101681.53;;;17.09;100.00
9421;BME280;4749;51.398;5.466;2023-09-07T03:36:32;101676.22;;;17.06;100.00
9421;BME280;4749;51.398;5.466;2023-09-07T03:39:00;101688.63;;;17.06;100.00
9421;BME280;4749;51.398;5.466;2023-09-07T03:41:27;101686.00;;;17.04;100.00
9421;BME280;4749;51.398;5.466;2023-09-07T03:43:57;101687.81;;;17.01;100.00
9421;BME280;4749;51.398;5.466;2023-09-07T03:46:25;101693.13;;;16.98;100.00
9421;BME280;4749;51.398;5.466;2023-09-07T03:48:53;101694.03;;;16.97;100.00
9421;BME280;4749;51.398;5.466;2023-09-07T03:51:20;101693.19;;;16.93;100.00
9421;BME280;4749;51.398;5.466;2023-09-07T03:53:47;101700.28;;;16.93;100.00
9421;BME280;4749;51.398;5.466;2023-09-07T03:56:17;101695.88;;;16.88;100.00
9421;BME280;4749;51.398;5.466;2023-09-07T03:58:44;101695.03;;;16.86;100.00
9421;BME280;4749;51.398;5.466;2023-09-07T04:01:14;101695.94;;;16.85;100.00
9421;BME280;4749;51.398;5.466;2023-09-07T04:03:41;101694.19;;;16.83;100.00
9421;BME280;4749;51.398;5.466;2023-09-07T04:06:09;101689.78;;;16.80;100.00
9421;BME280;4749;51.398;5.466;2023-09-07T04:08:37;101698.66;;;16.78;100.00
9421;BME280;4749;51.398;5.466;2023-09-07T04:11:05;101696.91;;;16.75;100.00
9421;BME280;4749;51.398;5.466;2023-09-07T04:13:32;101696.06;;;16.73;100.00
9421;BME280;4749;51.398;5.466;2023-09-07T04:16:00;101695.16;;;16.71;100.00
9421;BME280;4749;51.398;5.466;2023-09-07T04:18:27;101703.13;;;16.71;100.00
9421;BME280;4749;51.398;5.466;2023-09-07T04:21:08;101699.63;;;16.69;100.00
9421;BME280;4749;51.398;5.466;2023-09-07T04:23:35;101696.06;;;16.67;100.00
9421;BME280;4749;51.398;5.466;2023-09-07T04:26:10;101689.91;;;16.65;100.00
9421;BME280;4749;51.398;5.466;2023-09-07T04:28:39;101695.22;;;16.64;100.00
9421;BME280;4749;51.398;5.466;2023-09-07T04:31:06;101691.69;;;16.61;100.00
9421;BME280;4749;51.398;5.466;2023-09-07T04:33:33;101709.41;;;16.61;100.00
9421;BME280;4749;51.398;5.466;2023-09-07T04:36:11;101700.56;;;16.60;100.00
9421;BME280;4749;51.398;5.466;2023-09-07T04:38:40;101707.66;;;16.58;100.00
9421;BME280;4749;51.398;5.466;2023-09-07T04:41:08;101704.13;;;16.55;100.00
9421;BME280;4749;51.398;5.466;2023-09-07T04:43:38;101705.03;;;16.54;100.00
9421;BME280;4749;51.398;5.466;2023-09-07T04:46:15;101699.75;;;16.51;100.00
9421;BME280;4749;51.398;5.466;2023-09-07T04:48:42;101708.63;;;16.50;100.00
9421;BME280;4749;51.398;5.466;2023-09-07T04:51:10;101709.50;;;16.47;100.00
9421;BME280;4749;51.398;5.466;2023-09-07T04:53:40;101712.16;;;16.49;100.00
9421;BME280;4749;51.398;5.466;2023-09-07T04:56:08;101701.56;;;16.46;100.00
9421;BME280;4749;51.398;5.466;2023-09-07T04:58:35;101707.75;;;16.45;100.00
9421;BME280;4749;51.398;5.466;2023-09-07T05:01:11;101702.44;;;16.45;100.00
9421;BME280;4749;51.398;5.466;2023-09-07T05:03:39;101700.72;;;16.42;100.00
9421;BME280;4749;51.398;5.466;2023-09-07T05:06:09;101707.78;;;16.42;100.00
9421;BME280;4749;51.398;5.466;2023-09-07T05:08:36;101702.50;;;16.42;100.00
9421;BME280;4749;51.398;5.466;2023-09-07T05:11:04;101705.13;;;16.42;100.00
9421;BME280;4749;51.398;5.466;2023-09-07T05:13:32;101709.56;;;16.43;100.00
9421;BME280;4749;51.398;5.466;2023-09-07T05:16:00;101712.19;;;16.44;100.00
9421;BME280;4749;51.398;5.466;2023-09-07T05:18:28;101711.28;;;16.45;100.00
9421;BME280;4749;51.398;5.466;2023-09-07T05:20:56;101723.66;;;16.46;100.00
9421;BME280;4749;51.398;5.466;2023-09-07T05:23:24;101718.34;;;16.49;100.00
9421;BME280;4749;51.398;5.466;2023-09-07T05:25:54;101722.75;;;16.50;100.00
9421;BME280;4749;51.398;5.466;2023-09-07T05:28:22;101725.38;;;16.53;100.00
9421;BME280;4749;51.398;5.466;2023-09-07T05:30:50;101720.94;;;16.57;100.00
9421;BME280;4749;51.398;5.466;2023-09-07T05:33:18;101727.13;;;16.59;100.00
9421;BME280;4749;51.398;5.466;2023-09-07T05:35:46;101719.13;;;16.62;100.00
9421;BME280;4749;51.398;5.466;2023-09-07T05:38:13;101725.28;;;16.67;100.00
9421;BME280;4749;51.398;5.466;2023-09-07T05:40:43;101725.28;;;16.70;100.00
9421;BME280;4749;51.398;5.466;2023-09-07T05:43:11;101727.03;;;16.74;100.00
9421;BME280;4749;51.398;5.466;2023-09-07T05:45:40;101740.25;;;16.79;100.00
9421;BME280;4749;51.398;5.466;2023-09-07T05:48:08;101736.69;;;16.83;100.00
9421;BME280;4749;51.398;5.466;2023-09-07T05:50:38;101732.19;;;16.88;100.00
9421;BME280;4749;51.398;5.466;2023-09-07T05:53:06;101730.38;;;16.93;100.00
9421;BME280;4749;51.398;5.466;2023-09-07T05:55:33;101734.78;;;16.99;100.00
9421;BME280;4749;51.398;5.466;2023-09-07T05:58:05;101737.34;;;17.08;100.00
9421;BME280;4749;51.398;5.466;2023-09-07T06:00:36;101742.56;;;17.14;100.00
9421;BME280;4749;51.398;5.466;2023-09-07T06:03:07;101738.94;;;17.21;100.00
9421;BME280;4749;51.398;5.466;2023-09-07T06:05:40;101736.25;;;17.26;100.00
9421;BME280;4749;51.398;5.466;2023-09-07T06:08:07;101743.22;;;17.36;100.00
9421;BME280;4749;51.398;5.466;2023-09-07T06:10:34;101744.91;;;17.44;100.00
9421;BME280;4749;51.398;5.466;2023-09-07T06:13:01;101743.94;;;17.52;100.00
9421;BME280;4749;51.398;5.466;2023-09-07T06:15:30;101749.16;;;17.59;100.00
9421;BME280;4749;51.398;5.466;2023-09-07T06:17:58;101756.16;;;17.68;100.00
9421;BME280;4749;51.398;5.466;2023-09-07T06:20:28;101760.50;;;17.77;100.00
9421;BME280;4749;51.398;5.466;2023-09-07T06:22:55;101749.81;;;17.83;100.00
9421;BME280;4749;51.398;5.466;2023-09-07T06:25:22;101754.13;;;17.90;100.00
9421;BME280;4749;51.398;5.466;2023-09-07T06:27:49;101749.56;;;17.98;100.00
9421;BME280;4749;51.398;5.466;2023-09-07T06:30:18;101756.53;;;18.07;100.00
9421;BME280;4749;51.398;5.466;2023-09-07T06:32:45;101749.34;;;18.15;100.00
9421;BME280;4749;51.398;5.466;2023-09-07T06:35:12;101753.66;;;18.23;100.00
9421;BME280;4749;51.398;5.466;2023-09-07T06:37:39;101752.63;;;18.32;100.00
9421;BME280;4749;51.398;5.466;2023-09-07T06:40:09;101756.06;;;18.40;100.00
9421;BME280;4749;51.398;5.466;2023-09-07T06:42:37;101758.56;;;18.49;100.00
9421;BME280;4749;51.398;5.466;2023-09-07T06:45:06;101756.66;;;18.59;100.00
9421;BME280;4749;51.398;5.466;2023-09-07T06:47:34;101765.44;;;18.69;100.00
9421;BME280;4749;51.398;5.466;2023-09-07T06:50:02;101762.59;;;18.78;100.00
9421;BME280;4749;51.398;5.466;2023-09-07T06:52:29;101762.44;;;18.87;100.00
9421;BME280;4749;51.398;5.466;2023-09-07T06:54:56;101767.63;;;18.96;100.00
9421;BME280;4749;51.398;5.466;2023-09-07T06:57:24;101766.53;;;19.06;100.00
9421;BME280;4749;51.398;5.466;2023-09-07T06:59:51;101769.03;;;19.16;100.00
9421;BME280;4749;51.398;5.466;2023-09-07T07:02:18;101763.53;;;19.25;100.00
9421;BME280;4749;51.398;5.466;2023-09-07T07:04:45;101761.59;;;19.33;100.00
9421;BME280;4749;51.398;5.466;2023-09-07T07:07:13;101764.09;;;19.42;100.00
9421;BME280;4749;51.398;5.466;2023-09-07T07:09:40;101769.28;;;19.51;100.00
9421;BME280;4749;51.398;5.466;2023-09-07T07:12:08;101770.88;;;19.61;100.00
9421;BME280;4749;51.398;5.466;2023-09-07T07:14:35;101768.00;;;19.71;100.00
9421;BME280;4749;51.398;5.466;2023-09-07T07:17:02;101766.00;;;19.82;100.00
9421;BME280;4749;51.398;5.466;2023-09-07T07:19:31;101763.06;;;19.94;100.00
9421;BME280;4749;51.398;5.466;2023-09-07T07:21:59;101772.63;;;20.04;100.00
9421;BME280;4749;51.398;5.466;2023-09-07T07:24:27;101766.22;;;20.13;100.00
9421;BME280;4749;51.398;5.466;2023-09-07T07:26:54;101770.34;;;20.26;100.00
9421;BME280;4749;51.398;5.466;2023-09-07T07:29:21;101770.13;;;20.37;100.00
9421;BME280;4749;51.398;5.466;2023-09-07T07:31:48;101765.44;;;20.48;100.00
9421;BME280;4749;51.398;5.466;2023-09-07T07:34:16;101761.56;;;20.60;100.00
9421;BME280;4749;51.398;5.466;2023-09-07T07:36:43;101763.91;;;20.73;100.00
9421;BME280;4749;51.398;5.466;2023-09-07T07:39:10;101768.09;;;20.84;100.00
9421;BME280;4749;51.398;5.466;2023-09-07T07:41:37;101764.25;;;20.95;100.00
9421;BME280;4749;51.398;5.466;2023-09-07T07:44:07;101763.06;;;21.07;100.00
9421;BME280;4749;51.398;5.466;2023-09-07T07:46:35;101762.75;;;21.19;100.00
9421;BME280;4749;51.398;5.466;2023-09-07T07:49:02;101772.19;;;21.32;100.00
9421;BME280;4749;51.398;5.466;2023-09-07T07:51:29;101759.38;;;21.45;100.00
9421;BME280;4749;51.398;5.466;2023-09-07T07:53:57;101758.03;;;21.60;100.00
9421;BME280;4749;51.398;5.466;2023-09-07T07:56:27;101748.94;;;21.67;100.00
9421;BME280;4749;51.398;5.466;2023-09-07T07:58:58;101751.25;;;21.79;100.00
9421;BME280;4749;51.398;5.466;2023-09-07T08:01:25;101751.84;;;21.89;100.00
9421;BME280;4749;51.398;5.466;2023-09-07T08:03:53;101750.66;;;21.99;100.00
9421;BME280;4749;51.398;5.466;2023-09-07T08:06:22;101747.75;;;22.07;100.00
9421;BME280;4749;51.398;5.466;2023-09-07T08:08:49;101742.13;;;22.16;100.00
9421;BME280;4749;51.398;5.466;2023-09-07T08:11:16;101743.53;;;22.28;100.00
9421;BME280;4749;51.398;5.466;2023-09-07T08:13:43;101745.94;;;22.37;100.00
9421;BME280;4749;51.398;5.466;2023-09-07T08:16:13;101745.66;;;22.46;100.00
9421;BME280;4749;51.398;5.466;2023-09-07T08:18:41;101738.19;;;22.56;100.00
9421;BME280;4749;51.398;5.466;2023-09-07T08:21:08;101736.81;;;22.69;100.00
9421;BME280;4749;51.398;5.466;2023-09-07T08:23:35;101739.09;;;22.81;100.00
9421;BME280;4749;51.398;5.466;2023-09-07T08:26:03;101738.81;;;22.90;100.00
9421;BME280;4749;51.398;5.466;2023-09-07T08:28:30;101732.19;;;23.00;100.00
9421;BME280;4749;51.398;5.466;2023-09-07T08:30:58;101731.94;;;23.08;100.00
9421;BME280;4749;51.398;5.466;2023-09-07T08:33:28;101731.53;;;23.19;100.00
9421;BME280;4749;51.398;5.466;2023-09-07T08:35:57;101725.91;;;23.26;100.00
9421;BME280;4749;51.398;5.466;2023-09-07T08:38:24;101724.69;;;23.35;100.00
9421;BME280;4749;51.398;5.466;2023-09-07T08:40:57;101728.84;;;23.44;100.00
9421;BME280;4749;51.398;5.466;2023-09-07T08:43:29;101727.56;;;23.54;100.00
9421;BME280;4749;51.398;5.466;2023-09-07T08:46:17;101728.16;;;23.64;100.00
9421;BME280;4749;51.398;5.466;2023-09-07T08:48:45;101731.28;;;23.75;100.00
9421;BME280;4749;51.398;5.466;2023-09-07T08:51:16;101724.63;;;23.85;100.00
9421;BME280;4749;51.398;5.466;2023-09-07T08:53:45;101726.94;;;23.94;100.00
9421;BME280;4749;51.398;5.466;2023-09-07T08:56:20;101719.47;;;24.02;100.00
9421;BME280;4749;51.398;5.466;2023-09-07T08:58:48;101719.97;;;24.12;100.00
9421;BME280;4749;51.398;5.466;2023-09-07T09:01:19;101716.03;;;24.21;100.00
9421;BME280;4749;51.398;5.466;2023-09-07T09:03:49;101710.38;;;24.28;100.00
9421;BME280;4749;51.398;5.466;2023-09-07T09:06:19;101705.59;;;24.36;100.00
9421;BME280;4749;51.398;5.466;2023-09-07T09:08:54;101712.31;;;24.47;100.00
9421;BME280;4749;51.398;5.466;2023-09-07T09:11:23;101706.69;;;24.53;100.00
9421;BME280;4749;51.398;5.466;2023-09-07T09:13:52;101705.50;;;24.60;100.00
9421;BME280;4749;51.398;5.466;2023-09-07T09:16:21;101710.56;;;24.67;100.00
9421;BME280;4749;51.398;5.466;2023-09-07T09:18:59;101713.00;;;24.74;100.00
9421;BME280;4749;51.398;5.466;2023-09-07T09:21:27;101708.19;;;24.80;100.00
9421;BME280;4749;51.398;5.466;2023-09-07T09:23:56;101712.28;;;24.90;100.00
9421;BME280;4749;51.398;5.466;2023-09-07T09:26:23;101704.78;;;24.97;100.00
9421;BME280;4749;51.398;5.466;2023-09-07T09:28:56;101703.56;;;25.06;100.00
9421;BME280;4749;51.398;5.466;2023-09-07T09:31:24;101711.22;;;25.15;100.00
9421;BME280;4749;51.398;5.466;2023-09-07T09:33:52;101706.50;;;25.20;100.00
9421;BME280;4749;51.398;5.466;2023-09-07T09:36:20;101703.47;;;25.27;100.00
9421;BME280;4749;51.398;5.466;2023-09-07T09:38:52;101709.38;;;25.36;100.00
9421;BME280;4749;51.398;5.466;2023-09-07T09:41:22;101704.59;;;25.42;100.00
9421;BME280;4749;51.398;5.466;2023-09-07T09:43:50;101709.69;;;25.48;100.00
9421;BME280;4749;51.398;5.466;2023-09-07T09:46:18;101700.25;;;25.59;100.00
9421;BME280;4749;51.398;5.466;2023-09-07T09:48:46;101707.03;;;25.67;100.00
9421;BME280;4749;51.398;5.466;2023-09-07T09:51:18;101710.25;;;25.75;100.00
9421;BME280;4749;51.398;5.466;2023-09-07T09:53:45;101703.78;;;25.79;100.00
9421;BME280;4749;51.398;5.466;2023-09-07T09:56:12;101693.44;;;25.89;100.00
9421;BME280;4749;51.398;5.466;2023-09-07T09:58:40;101697.66;;;25.95;100.00
9421;BME280;4749;51.398;5.466;2023-09-07T10:01:08;101702.84;;;25.99;100.00
9421;BME280;4749;51.398;5.466;2023-09-07T10:03:47;101698.00;;;26.06;100.00
9421;BME280;4749;51.398;5.466;2023-09-07T10:06:29;101698.59;;;26.13;100.00
9421;BME280;4749;51.398;5.466;2023-09-07T10:11:36;101689.59;;;26.31;100.00
9421;BME280;4749;51.398;5.466;2023-09-07T10:14:08;101695.56;;;26.37;100.00
9421;BME280;4749;51.398;5.466;2023-09-07T10:16:50;101688.94;;;26.45;100.00
9421;BME280;4749;51.398;5.466;2023-09-07T10:19:23;101693.94;;;26.52;100.00
9421;BME280;4749;51.398;5.466;2023-09-07T10:21:54;101693.66;;;26.58;100.00
9421;BME280;4749;51.398;5.466;2023-09-07T10:24:30;101697.84;;;26.64;100.00
9421;BME280;4749;51.398;5.466;2023-09-07T10:27:03;101682.28;;;26.69;100.00
9421;BME280;4749;51.398;5.466;2023-09-07T10:29:46;101685.31;;;26.80;100.00
9421;BME280;4749;51.398;5.466;2023-09-07T10:32:14;101677.69;;;26.88;100.00
9421;BME280;4749;51.398;5.466;2023-09-07T10:34:47;101679.09;;;26.96;100.00
9421;BME280;4749;51.398;5.466;2023-09-07T10:37:15;101676.09;;;27.02;100.00
9421;BME280;4749;51.398;5.466;2023-09-07T10:39:44;101666.75;;;27.09;100.00
9421;BME280;4749;51.398;5.466;2023-09-07T10:42:25;101660.94;;;27.16;100.00
9421;BME280;4749;51.398;5.466;2023-09-07T10:44:53;101662.50;;;27.20;100.00
9421;BME280;4749;51.398;5.466;2023-09-07T10:47:21;101662.09;;;27.28;100.00
9421;BME280;4749;51.398;5.466;2023-09-07T10:49:48;101663.44;;;27.37;100.00
9421;BME280;4749;51.398;5.466;2023-09-07T10:52:17;101661.19;;;27.45;100.00
9421;BME280;4749;51.398;5.466;2023-09-07T10:54:44;101662.59;;;27.52;100.00
9421;BME280;4749;51.398;5.466;2023-09-07T10:57:12;101655.88;;;27.59;100.00
9421;BME280;4749;51.398;5.466;2023-09-07T10:59:45;101659.09;;;27.66;100.00
9421;BME280;4749;51.398;5.466;2023-09-07T11:02:15;101655.13;;;27.73;100.00
9421;BME280;4749;51.398;5.466;2023-09-07T11:04:43;101650.97;;;27.83;100.00
9421;BME280;4749;51.398;5.466;2023-09-07T11:07:11;101656.88;;;27.90;100.00
9421;BME280;4749;51.398;5.466;2023-09-07T11:09:42;101646.59;;;27.96;100.00
9421;BME280;4749;51.398;5.466;2023-09-07T11:12:14;101651.66;;;28.02;100.00
9421;BME280;4749;51.398;5.466;2023-09-07T11:14:47;101653.91;;;28.10;100.00
9421;BME280;4749;51.398;5.466;2023-09-07T11:17:16;101651.53;;;28.20;100.00
9421;BME280;4749;51.398;5.466;2023-09-07T11:19:43;101659.31;;;28.26;100.00
9421;BME280;4749;51.398;5.466;2023-09-07T11:22:12;101652.69;;;28.31;100.00
9421;BME280;4749;51.398;5.466;2023-09-07T11:24:40;101653.28;;;28.37;100.00
9421;BME280;4749;51.398;5.466;2023-09-07T11:27:09;101653.69;;;28.45;100.00
9421;BME280;4749;51.398;5.466;2023-09-07T11:29:36;101650.44;;;28.54;100.00
9421;BME280;4749;51.398;5.466;2023-09-07T11:32:10;101659.22;;;28.57;100.00
9421;BME280;4749;51.398;5.466;2023-09-07T11:34:52;101665.34;;;28.61;100.00
9421;BME280;4749;51.398;5.466;2023-09-07T11:37:25;101657.91;;;28.65;100.00
9421;BME280;4749;51.398;5.466;2023-09-07T11:39:53;101655.81;;;28.70;100.00
9421;BME280;4749;51.398;5.466;2023-09-07T11:42:20;101659.19;;;28.73;100.00
9421;BME280;4749;51.398;5.466;2023-09-07T11:44:47;101654.63;;;28.74;100.00
9421;BME280;4749;51.398;5.466;2023-09-07T11:47:15;101648.97;;;28.78;100.00
9421;BME280;4749;51.398;5.466;2023-09-07T11:49:43;101646.94;;;28.82;100.00
9421;BME280;4749;51.398;5.466;2023-09-07T11:52:10;101645.78;;;28.86;100.00
9421;BME280;4749;51.398;5.466;2023-09-07T11:54:37;101648.13;;;28.92;100.00
9421;BME280;4749;51.398;5.466;2023-09-07T11:57:05;101636.38;;;28.93;100.00
9421;BME280;4749;51.398;5.466;2023-09-07T11:59:32;101636.06;;;28.98;100.00
9421;BME280;4749;51.398;5.466;2023-09-07T12:02:14;101630.38;;;29.02;100.00
9421;BME280;4749;51.398;5.466;2023-09-07T12:04:42;101628.25;;;29.07;100.00
9421;BME280;4749;51.398;5.466;2023-09-07T12:07:10;101628.06;;;29.10;100.00
9421;BME280;4749;51.398;5.466;2023-09-07T12:09:37;101632.31;;;29.14;100.00
9421;BME280;4749;51.398;5.466;2023-09-07T12:12:05;101630.19;;;29.20;100.00
9421;BME280;4749;51.398;5.466;2023-09-07T12:14:32;101623.50;;;29.25;100.00
9421;BME280;4749;51.398;5.466;2023-09-07T12:17:00;101626.78;;;29.30;100.00
9421;BME280;4749;51.398;5.466;2023-09-07T12:19:27;101619.31;;;29.34;100.00
9421;BME280;4749;51.398;5.466;2023-09-07T12:21:54;101614.72;;;29.36;100.00
9421;BME280;4749;51.398;5.466;2023-09-07T12:24:22;101612.06;;;29.34;100.00
9421;BME280;4749;51.398;5.466;2023-09-07T12:26:49;101622.63;;;29.39;100.00
9421;BME280;4749;51.398;5.466;2023-09-07T12:29:17;101618.75;;;29.43;100.00
9421;BME280;4749;51.398;5.466;2023-09-07T12:31:44;101618.56;;;29.46;100.00
9421;BME280;4749;51.398;5.466;2023-09-07T12:34:12;101608.59;;;29.47;100.00
9421;BME280;4749;51.398;5.466;2023-09-07T12:36:39;101616.53;;;29.50;100.00
9421;BME280;4749;51.398;5.466;2023-09-07T12:39:06;101607.38;;;29.52;100.00
9421;BME280;4749;51.398;5.466;2023-09-07T12:41:34;101607.25;;;29.54;98.99
9421;BME280;4749;51.398;5.466;2023-09-07T12:44:01;101600.56;;;29.59;99.10
9421;BME280;4749;51.398;5.466;2023-09-07T12:46:28;101601.13;;;29.64;100.00
9421;BME280;4749;51.398;5.466;2023-09-07T12:48:55;101595.44;;;29.69;100.00
9421;BME280;4749;51.398;5.466;2023-09-07T12:51:22;101605.94;;;29.74;100.00
9421;BME280;4749;51.398;5.466;2023-09-07T12:53:50;101599.25;;;29.79;100.00
9421;BME280;4749;51.398;5.466;2023-09-07T12:56:18;101597.22;;;29.83;99.30
9421;BME280;4749;51.398;5.466;2023-09-07T12:58:45;101599.72;;;29.86;96.98
9421;BME280;4749;51.398;5.466;2023-09-07T13:01:13;101601.56;;;29.85;95.11
9421;BME280;4749;51.398;5.466;2023-09-07T13:03:42;101594.31;;;29.86;94.85
9421;BME280;4749;51.398;5.466;2023-09-07T13:06:10;101593.22;;;29.88;95.32
9421;BME280;4749;51.398;5.466;2023-09-07T13:08:38;101590.19;;;29.93;94.64
9421;BME280;4749;51.398;5.466;2023-09-07T13:11:05;101584.47;;;29.97;95.85